Accueil
METAR-TAF:

METAR-TAF

Aéroports :

Base aérienne 115 Orange-Caritat

Orange, France

latitude: 44-08N, longitude: 004-50E, altitude: 60 m

Observation

Le bulletin a été fait il y a 14 minutes, à 22:00 UTC
Vent 1 kt de ouest
Température 8°C
Humidité 87%
Pression 1009 hPa
Visibilité 10 km ou plus
pas de nuages en-dessous de 1500 mètres et pas de cumulonimbus.

METAR: LFMO 292200Z AUTO 28001KT CAVOK 08/06 Q1009 NOSIG

Heure: 23:14 (22:14 UTC)

Prévision

Le bulletin a été fait il y a 2 heures et 14 minutes, à 20:00 UTC
Prévision valable du 29 à 21 UTC au 01 à 21 UTC
Vent 5 kt de nord-ouest
Visibilité 10 km ou plus
pas de nuages en-dessous de 1500 mètres et pas de cumulonimbus.
Temporairement
du 01 à 06 UTC au 01 à 12 UTC
Vent 15 kt de nord avec des rafales jusqu'à 25 kt

TAF: LFMO 292000Z 2921/0121 32005KT CAVOK TX17/0115Z TN06/0101Z TEMPO 0106/0112 35015G25KT

Observations et prévisions météorologiques de plus de 4000 aéroports (messages METAR et TAF).

Les stations disponibles sont représentées par des disques jaunes et rouges sur la carte.

Passer la souris dessus pour voir le nom de la station.

Cliquer dessus pour voir les observations et prévisions météorologiques.

Pour changer de carte: cliquez sur les boutons verts avec une croix noire pour zoomer, sur le bouton vert avec un tiret pour effectuer un zoom arrière, ou sur les flèches vertes pour les cartes adjacentes.


METAR-TAF: